sensor_id;sensor_type;location;lat;lon;timestamp;P1;durP1;ratioP1;P2;durP2;ratioP2
55150;SDS011;41041;43.162;20.538;2024-02-04T00:00:25;56.95;;;31.08;;
55150;SDS011;41041;43.162;20.538;2024-02-04T00:02:52;61.33;;;31.35;;
55150;SDS011;41041;43.162;20.538;2024-02-04T00:05:18;57.83;;;30.88;;
55150;SDS011;41041;43.162;20.538;2024-02-04T00:07:44;74.63;;;35.78;;
55150;SDS011;41041;43.162;20.538;2024-02-04T00:10:11;82.05;;;42.42;;
55150;SDS011;41041;43.162;20.538;2024-02-04T00:12:37;71.10;;;36.42;;
55150;SDS011;41041;43.162;20.538;2024-02-04T00:15:04;64.38;;;34.72;;
55150;SDS011;41041;43.162;20.538;2024-02-04T00:17:30;58.50;;;30.90;;
55150;SDS011;41041;43.162;20.538;2024-02-04T00:19:59;51.20;;;28.67;;
55150;SDS011;41041;43.162;20.538;2024-02-04T00:22:26;155.98;;;72.10;;
55150;SDS011;41041;43.162;20.538;2024-02-04T00:24:54;64.97;;;34.13;;
55150;SDS011;41041;43.162;20.538;2024-02-04T00:27:26;68.25;;;36.47;;
55150;SDS011;41041;43.162;20.538;2024-02-04T00:29:52;69.45;;;37.92;;
55150;SDS011;41041;43.162;20.538;2024-02-04T00:32:18;62.50;;;32.75;;
55150;SDS011;41041;43.162;20.538;2024-02-04T00:34:43;62.92;;;34.63;;
55150;SDS011;41041;43.162;20.538;2024-02-04T00:37:09;62.20;;;34.60;;
55150;SDS011;41041;43.162;20.538;2024-02-04T00:39:36;58.50;;;33.20;;
55150;SDS011;41041;43.162;20.538;2024-02-04T00:42:02;62.67;;;34.15;;
55150;SDS011;41041;43.162;20.538;2024-02-04T00:44:28;63.80;;;34.28;;
55150;SDS011;41041;43.162;20.538;2024-02-04T00:46:54;70.13;;;34.75;;
55150;SDS011;41041;43.162;20.538;2024-02-04T00:49:20;59.83;;;34.13;;
55150;SDS011;41041;43.162;20.538;2024-02-04T00:51:45;63.35;;;35.88;;
55150;SDS011;41041;43.162;20.538;2024-02-04T00:54:11;67.88;;;38.30;;
55150;SDS011;41041;43.162;20.538;2024-02-04T00:56:37;64.55;;;34.65;;
55150;SDS011;41041;43.162;20.538;2024-02-04T00:59:03;56.88;;;32.45;;
55150;SDS011;41041;43.162;20.538;2024-02-04T01:01:29;59.65;;;34.95;;
55150;SDS011;41041;43.162;20.538;2024-02-04T01:03:54;68.55;;;36.15;;
55150;SDS011;41041;43.162;20.538;2024-02-04T01:06:20;72.75;;;40.72;;
55150;SDS011;41041;43.162;20.538;2024-02-04T01:08:46;74.63;;;40.92;;
55150;SDS011;41041;43.162;20.538;2024-02-04T01:11:12;58.03;;;33.92;;
55150;SDS011;41041;43.162;20.538;2024-02-04T01:13:38;63.33;;;35.30;;
55150;SDS011;41041;43.162;20.538;2024-02-04T01:16:03;53.63;;;31.98;;
55150;SDS011;41041;43.162;20.538;2024-02-04T01:18:29;62.17;;;34.20;;
55150;SDS011;41041;43.162;20.538;2024-02-04T01:20:56;49.72;;;28.92;;
55150;SDS011;41041;43.162;20.538;2024-02-04T01:23:23;56.60;;;30.85;;
55150;SDS011;41041;43.162;20.538;2024-02-04T01:25:49;53.17;;;30.15;;
55150;SDS011;41041;43.162;20.538;2024-02-04T01:28:14;56.50;;;32.63;;
55150;SDS011;41041;43.162;20.538;2024-02-04T01:30:40;53.80;;;29.48;;
55150;SDS011;41041;43.162;20.538;2024-02-04T01:33:06;56.20;;;32.70;;
55150;SDS011;41041;43.162;20.538;2024-02-04T01:35:32;87.78;;;44.80;;
55150;SDS011;41041;43.162;20.538;2024-02-04T01:37:57;61.95;;;34.30;;
55150;SDS011;41041;43.162;20.538;2024-02-04T01:40:23;51.63;;;28.80;;
55150;SDS011;41041;43.162;20.538;2024-02-04T01:42:49;49.65;;;27.65;;
55150;SDS011;41041;43.162;20.538;2024-02-04T01:45:15;44.90;;;23.98;;
55150;SDS011;41041;43.162;20.538;2024-02-04T01:47:41;69.20;;;38.67;;
55150;SDS011;41041;43.162;20.538;2024-02-04T01:50:07;71.47;;;37.05;;
55150;SDS011;41041;43.162;20.538;2024-02-04T01:52:35;71.97;;;39.95;;
55150;SDS011;41041;43.162;20.538;2024-02-04T01:55:03;63.85;;;36.10;;
55150;SDS011;41041;43.162;20.538;2024-02-04T01:57:30;55.38;;;30.88;;
55150;SDS011;41041;43.162;20.538;2024-02-04T01:59:57;50.65;;;29.27;;
55150;SDS011;41041;43.162;20.538;2024-02-04T02:04:52;54.22;;;30.17;;
55150;SDS011;41041;43.162;20.538;2024-02-04T02:07:21;55.50;;;30.05;;
55150;SDS011;41041;43.162;20.538;2024-02-04T02:12:50;53.70;;;30.58;;
55150;SDS011;41041;43.162;20.538;2024-02-04T02:15:24;54.80;;;30.20;;
55150;SDS011;41041;43.162;20.538;2024-02-04T02:20:27;52.40;;;29.20;;
55150;SDS011;41041;43.162;20.538;2024-02-04T02:23:11;47.03;;;26.25;;
55150;SDS011;41041;43.162;20.538;2024-02-04T02:25:37;44.17;;;24.85;;
55150;SDS011;41041;43.162;20.538;2024-02-04T02:28:04;47.03;;;26.33;;
55150;SDS011;41041;43.162;20.538;2024-02-04T02:30:39;43.80;;;23.73;;
55150;SDS011;41041;43.162;20.538;2024-02-04T02:33:05;43.08;;;23.55;;
55150;SDS011;41041;43.162;20.538;2024-02-04T02:35:33;41.53;;;20.92;;
55150;SDS011;41041;43.162;20.538;2024-02-04T02:38:01;37.88;;;19.48;;
55150;SDS011;41041;43.162;20.538;2024-02-04T02:40:29;32.60;;;18.38;;
55150;SDS011;41041;43.162;20.538;2024-02-04T02:42:56;33.55;;;18.92;;
55150;SDS011;41041;43.162;20.538;2024-02-04T02:45:23;28.40;;;15.82;;
55150;SDS011;41041;43.162;20.538;2024-02-04T02:47:50;33.28;;;17.83;;
55150;SDS011;41041;43.162;20.538;2024-02-04T02:50:17;23.73;;;12.95;;
55150;SDS011;41041;43.162;20.538;2024-02-04T02:52:45;27.70;;;15.13;;
55150;SDS011;41041;43.162;20.538;2024-02-04T02:55:10;30.90;;;18.02;;
55150;SDS011;41041;43.162;20.538;2024-02-04T02:57:48;35.15;;;20.10;;
55150;SDS011;41041;43.162;20.538;2024-02-04T03:00:14;38.42;;;20.45;;
55150;SDS011;41041;43.162;20.538;2024-02-04T03:02:40;36.42;;;20.00;;
55150;SDS011;41041;43.162;20.538;2024-02-04T03:05:06;36.65;;;20.25;;
55150;SDS011;41041;43.162;20.538;2024-02-04T03:07:32;25.88;;;13.48;;
55150;SDS011;41041;43.162;20.538;2024-02-04T03:09:58;25.70;;;13.13;;
55150;SDS011;41041;43.162;20.538;2024-02-04T03:12:24;26.55;;;15.48;;
55150;SDS011;41041;43.162;20.538;2024-02-04T03:14:50;33.15;;;18.48;;
55150;SDS011;41041;43.162;20.538;2024-02-04T03:17:16;33.60;;;18.95;;
55150;SDS011;41041;43.162;20.538;2024-02-04T03:19:46;38.95;;;20.80;;
55150;SDS011;41041;43.162;20.538;2024-02-04T03:22:13;28.83;;;14.55;;
55150;SDS011;41041;43.162;20.538;2024-02-04T03:24:39;26.60;;;14.38;;
55150;SDS011;41041;43.162;20.538;2024-02-04T03:27:05;40.08;;;21.77;;
55150;SDS011;41041;43.162;20.538;2024-02-04T03:29:31;39.15;;;20.35;;
55150;SDS011;41041;43.162;20.538;2024-02-04T03:32:11;39.47;;;22.15;;
55150;SDS011;41041;43.162;20.538;2024-02-04T03:34:37;28.60;;;16.55;;
55150;SDS011;41041;43.162;20.538;2024-02-04T03:37:11;33.30;;;19.00;;
55150;SDS011;41041;43.162;20.538;2024-02-04T03:39:37;41.35;;;23.25;;
55150;SDS011;41041;43.162;20.538;2024-02-04T03:42:03;39.40;;;22.13;;
55150;SDS011;41041;43.162;20.538;2024-02-04T03:44:29;38.70;;;20.35;;
55150;SDS011;41041;43.162;20.538;2024-02-04T03:46:55;38.78;;;21.33;;
55150;SDS011;41041;43.162;20.538;2024-02-04T03:49:21;39.70;;;21.80;;
55150;SDS011;41041;43.162;20.538;2024-02-04T03:51:46;39.05;;;22.10;;
55150;SDS011;41041;43.162;20.538;2024-02-04T03:54:12;38.90;;;21.15;;
55150;SDS011;41041;43.162;20.538;2024-02-04T03:56:38;37.22;;;20.63;;
55150;SDS011;41041;43.162;20.538;2024-02-04T03:59:04;38.25;;;20.25;;
55150;SDS011;41041;43.162;20.538;2024-02-04T04:01:31;41.03;;;23.48;;
55150;SDS011;41041;43.162;20.538;2024-02-04T04:03:57;41.97;;;21.90;;
55150;SDS011;41041;43.162;20.538;2024-02-04T04:06:23;30.27;;;16.48;;
55150;SDS011;41041;43.162;20.538;2024-02-04T04:08:48;25.10;;;14.10;;
55150;SDS011;41041;43.162;20.538;2024-02-04T04:11:14;27.13;;;15.07;;
55150;SDS011;41041;43.162;20.538;2024-02-04T04:13:40;37.05;;;20.10;;
55150;SDS011;41041;43.162;20.538;2024-02-04T04:19:02;35.65;;;20.00;;
55150;SDS011;41041;43.162;20.538;2024-02-04T04:21:28;38.38;;;21.15;;
55150;SDS011;41041;43.162;20.538;2024-02-04T04:23:54;26.17;;;14.82;;
55150;SDS011;41041;43.162;20.538;2024-02-04T04:26:19;25.60;;;13.82;;
55150;SDS011;41041;43.162;20.538;2024-02-04T04:28:45;27.33;;;15.55;;
55150;SDS011;41041;43.162;20.538;2024-02-04T04:31:11;52.33;;;24.98;;
55150;SDS011;41041;43.162;20.538;2024-02-04T04:33:36;43.85;;;23.48;;
55150;SDS011;41041;43.162;20.538;2024-02-04T04:36:02;47.33;;;25.30;;
55150;SDS011;41041;43.162;20.538;2024-02-04T04:38:28;41.15;;;22.90;;
55150;SDS011;41041;43.162;20.538;2024-02-04T04:40:54;41.10;;;23.30;;
55150;SDS011;41041;43.162;20.538;2024-02-04T04:43:20;45.75;;;24.13;;
55150;SDS011;41041;43.162;20.538;2024-02-04T04:45:45;38.95;;;21.45;;
55150;SDS011;41041;43.162;20.538;2024-02-04T04:48:11;43.22;;;25.42;;
55150;SDS011;41041;43.162;20.538;2024-02-04T04:50:37;44.30;;;25.45;;
55150;SDS011;41041;43.162;20.538;2024-02-04T04:53:03;45.13;;;25.27;;
55150;SDS011;41041;43.162;20.538;2024-02-04T04:55:29;44.50;;;24.85;;
55150;SDS011;41041;43.162;20.538;2024-02-04T04:57:55;42.88;;;24.13;;
55150;SDS011;41041;43.162;20.538;2024-02-04T05:00:21;43.42;;;23.25;;
55150;SDS011;41041;43.162;20.538;2024-02-04T05:02:47;41.60;;;21.88;;
55150;SDS011;41041;43.162;20.538;2024-02-04T05:05:13;41.97;;;22.83;;
55150;SDS011;41041;43.162;20.538;2024-02-04T05:07:43;42.33;;;24.50;;
55150;SDS011;41041;43.162;20.538;2024-02-04T05:10:11;41.70;;;23.95;;
55150;SDS011;41041;43.162;20.538;2024-02-04T05:15:22;47.55;;;25.17;;
55150;SDS011;41041;43.162;20.538;2024-02-04T05:17:48;53.00;;;28.50;;
55150;SDS011;41041;43.162;20.538;2024-02-04T05:20:14;53.42;;;29.08;;
55150;SDS011;41041;43.162;20.538;2024-02-04T05:22:40;46.30;;;27.58;;
55150;SDS011;41041;43.162;20.538;2024-02-04T05:25:06;41.28;;;23.80;;
55150;SDS011;41041;43.162;20.538;2024-02-04T05:27:32;45.38;;;24.38;;
55150;SDS011;41041;43.162;20.538;2024-02-04T05:30:06;38.95;;;22.70;;
55150;SDS011;41041;43.162;20.538;2024-02-04T05:32:32;41.67;;;23.08;;
55150;SDS011;41041;43.162;20.538;2024-02-04T05:34:58;42.20;;;24.00;;
55150;SDS011;41041;43.162;20.538;2024-02-04T05:37:24;43.45;;;26.05;;
55150;SDS011;41041;43.162;20.538;2024-02-04T05:42:19;45.88;;;27.38;;
55150;SDS011;41041;43.162;20.538;2024-02-04T05:44:45;43.78;;;24.05;;
55150;SDS011;41041;43.162;20.538;2024-02-04T05:47:23;47.83;;;26.80;;
55150;SDS011;41041;43.162;20.538;2024-02-04T05:49:49;61.85;;;31.25;;
55150;SDS011;41041;43.162;20.538;2024-02-04T05:52:15;58.63;;;29.27;;
55150;SDS011;41041;43.162;20.538;2024-02-04T05:54:41;43.35;;;24.77;;
55150;SDS011;41041;43.162;20.538;2024-02-04T05:57:07;53.20;;;27.35;;
55150;SDS011;41041;43.162;20.538;2024-02-04T05:59:35;44.17;;;26.52;;
55150;SDS011;41041;43.162;20.538;2024-02-04T06:02:00;41.58;;;24.45;;
55150;SDS011;41041;43.162;20.538;2024-02-04T06:04:26;40.00;;;22.33;;
55150;SDS011;41041;43.162;20.538;2024-02-04T06:06:52;38.55;;;22.73;;
55150;SDS011;41041;43.162;20.538;2024-02-04T06:09:18;40.03;;;22.30;;
55150;SDS011;41041;43.162;20.538;2024-02-04T06:11:46;39.95;;;24.67;;
55150;SDS011;41041;43.162;20.538;2024-02-04T06:14:13;41.00;;;24.02;;
55150;SDS011;41041;43.162;20.538;2024-02-04T06:16:38;41.80;;;24.40;;
55150;SDS011;41041;43.162;20.538;2024-02-04T06:19:04;46.95;;;26.42;;
55150;SDS011;41041;43.162;20.538;2024-02-04T06:21:30;51.42;;;28.88;;
55150;SDS011;41041;43.162;20.538;2024-02-04T06:23:56;68.65;;;39.80;;
55150;SDS011;41041;43.162;20.538;2024-02-04T06:26:22;71.30;;;40.95;;
55150;SDS011;41041;43.162;20.538;2024-02-04T06:28:48;57.80;;;33.85;;
55150;SDS011;41041;43.162;20.538;2024-02-04T06:31:17;52.22;;;28.52;;
55150;SDS011;41041;43.162;20.538;2024-02-04T06:33:43;66.63;;;38.67;;
55150;SDS011;41041;43.162;20.538;2024-02-04T06:36:09;64.43;;;36.33;;
55150;SDS011;41041;43.162;20.538;2024-02-04T06:38:36;71.68;;;41.75;;
55150;SDS011;41041;43.162;20.538;2024-02-04T06:41:02;48.90;;;30.55;;
55150;SDS011;41041;43.162;20.538;2024-02-04T06:43:28;51.15;;;30.58;;
55150;SDS011;41041;43.162;20.538;2024-02-04T06:45:53;91.72;;;51.70;;
55150;SDS011;41041;43.162;20.538;2024-02-04T06:48:19;51.05;;;30.85;;
55150;SDS011;41041;43.162;20.538;2024-02-04T06:50:45;62.08;;;37.00;;
55150;SDS011;41041;43.162;20.538;2024-02-04T06:53:13;68.75;;;38.42;;
55150;SDS011;41041;43.162;20.538;2024-02-04T06:55:39;79.45;;;40.50;;
55150;SDS011;41041;43.162;20.538;2024-02-04T06:58:05;106.38;;;56.05;;
55150;SDS011;41041;43.162;20.538;2024-02-04T07:00:32;103.13;;;57.00;;
55150;SDS011;41041;43.162;20.538;2024-02-04T07:02:58;71.25;;;38.95;;
55150;SDS011;41041;43.162;20.538;2024-02-04T07:05:24;66.63;;;35.53;;
55150;SDS011;41041;43.162;20.538;2024-02-04T07:07:50;60.75;;;34.47;;
55150;SDS011;41041;43.162;20.538;2024-02-04T07:10:18;63.22;;;34.72;;
55150;SDS011;41041;43.162;20.538;2024-02-04T07:12:44;64.70;;;35.78;;
55150;SDS011;41041;43.162;20.538;2024-02-04T07:15:10;69.72;;;39.10;;
55150;SDS011;41041;43.162;20.538;2024-02-04T07:17:37;71.18;;;38.60;;
55150;SDS011;41041;43.162;20.538;2024-02-04T07:20:03;87.57;;;48.90;;
55150;SDS011;41041;43.162;20.538;2024-02-04T07:22:30;75.88;;;40.03;;
55150;SDS011;41041;43.162;20.538;2024-02-04T07:24:56;95.35;;;50.92;;
55150;SDS011;41041;43.162;20.538;2024-02-04T07:27:22;91.95;;;49.35;;
55150;SDS011;41041;43.162;20.538;2024-02-04T07:29:48;91.35;;;49.80;;
55150;SDS011;41041;43.162;20.538;2024-02-04T07:32:14;110.40;;;58.33;;
55150;SDS011;41041;43.162;20.538;2024-02-04T07:34:40;141.70;;;80.63;;
55150;SDS011;41041;43.162;20.538;2024-02-04T07:37:07;139.65;;;82.47;;
55150;SDS011;41041;43.162;20.538;2024-02-04T07:39:33;137.45;;;78.40;;
55150;SDS011;41041;43.162;20.538;2024-02-04T07:41:58;144.30;;;87.28;;
55150;SDS011;41041;43.162;20.538;2024-02-04T07:44:26;152.45;;;90.15;;
55150;SDS011;41041;43.162;20.538;2024-02-04T07:46:52;160.13;;;94.28;;
55150;SDS011;41041;43.162;20.538;2024-02-04T07:49:18;152.52;;;89.47;;
55150;SDS011;41041;43.162;20.538;2024-02-04T07:51:43;159.45;;;95.47;;
55150;SDS011;41041;43.162;20.538;2024-02-04T07:54:09;157.98;;;96.10;;
55150;SDS011;41041;43.162;20.538;2024-02-04T07:56:36;155.77;;;96.28;;
55150;SDS011;41041;43.162;20.538;2024-02-04T07:59:02;165.93;;;101.10;;
55150;SDS011;41041;43.162;20.538;2024-02-04T08:01:29;168.95;;;104.90;;
55150;SDS011;41041;43.162;20.538;2024-02-04T08:03:55;171.65;;;106.00;;
55150;SDS011;41041;43.162;20.538;2024-02-04T08:06:21;160.63;;;98.85;;
55150;SDS011;41041;43.162;20.538;2024-02-04T08:08:47;155.20;;;97.50;;
55150;SDS011;41041;43.162;20.538;2024-02-04T08:11:20;135.35;;;86.88;;
55150;SDS011;41041;43.162;20.538;2024-02-04T08:13:46;122.00;;;75.82;;
55150;SDS011;41041;43.162;20.538;2024-02-04T08:16:12;105.97;;;66.60;;
55150;SDS011;41041;43.162;20.538;2024-02-04T08:18:38;106.97;;;63.72;;
55150;SDS011;41041;43.162;20.538;2024-02-04T08:21:04;102.80;;;61.97;;
55150;SDS011;41041;43.162;20.538;2024-02-04T08:23:30;95.43;;;57.88;;
55150;SDS011;41041;43.162;20.538;2024-02-04T08:25:56;92.43;;;55.03;;
55150;SDS011;41041;43.162;20.538;2024-02-04T08:28:22;89.97;;;52.42;;
55150;SDS011;41041;43.162;20.538;2024-02-04T08:30:49;90.72;;;54.90;;
55150;SDS011;41041;43.162;20.538;2024-02-04T08:33:15;87.57;;;50.92;;
55150;SDS011;41041;43.162;20.538;2024-02-04T08:35:41;85.90;;;52.53;;
55150;SDS011;41041;43.162;20.538;2024-02-04T08:38:07;422.33;;;140.75;;
55150;SDS011;41041;43.162;20.538;2024-02-04T08:40:34;111.43;;;57.65;;
55150;SDS011;41041;43.162;20.538;2024-02-04T08:43:00;90.63;;;50.03;;
55150;SDS011;41041;43.162;20.538;2024-02-04T08:45:26;89.70;;;47.55;;
55150;SDS011;41041;43.162;20.538;2024-02-04T08:47:53;91.72;;;46.22;;
55150;SDS011;41041;43.162;20.538;2024-02-04T08:50:19;80.45;;;42.28;;
55150;SDS011;41041;43.162;20.538;2024-02-04T08:52:45;83.00;;;44.50;;
55150;SDS011;41041;43.162;20.538;2024-02-04T08:55:16;67.22;;;38.42;;
55150;SDS011;41041;43.162;20.538;2024-02-04T08:57:42;75.68;;;39.50;;
55150;SDS011;41041;43.162;20.538;2024-02-04T09:00:08;65.70;;;37.58;;
55150;SDS011;41041;43.162;20.538;2024-02-04T09:05:43;67.53;;;37.45;;
55150;SDS011;41041;43.162;20.538;2024-02-04T09:29:46;23.23;;;12.85;;
55150;SDS011;41041;43.162;20.538;2024-02-04T09:32:12;25.75;;;13.02;;
55150;SDS011;41041;43.162;20.538;2024-02-04T09:41:23;18.45;;;10.02;;
55150;SDS011;41041;43.162;20.538;2024-02-04T09:47:32;17.52;;;8.27;;
55150;SDS011;41041;43.162;20.538;2024-02-04T09:59:01;9.77;;;5.30;;
55150;SDS011;41041;43.162;20.538;2024-02-04T10:01:27;15.63;;;6.25;;
55150;SDS011;41041;43.162;20.538;2024-02-04T12:25:06;8.15;;;5.38;;
55150;SDS011;41041;43.162;20.538;2024-02-04T12:27:32;31.85;;;22.52;;
55150;SDS011;41041;43.162;20.538;2024-02-04T12:29:59;9.63;;;5.05;;
55150;SDS011;41041;43.162;20.538;2024-02-04T12:35:19;6.25;;;2.97;;
55150;SDS011;41041;43.162;20.538;2024-02-04T12:37:52;6.50;;;2.92;;
55150;SDS011;41041;43.162;20.538;2024-02-04T12:40:24;5.18;;;2.60;;
55150;SDS011;41041;43.162;20.538;2024-02-04T12:43:15;6.53;;;2.78;;
55150;SDS011;41041;43.162;20.538;2024-02-04T12:48:50;4.47;;;2.30;;
55150;SDS011;41041;43.162;20.538;2024-02-04T12:51:27;4.00;;;2.10;;
55150;SDS011;41041;43.162;20.538;2024-02-04T12:54:03;7.68;;;2.58;;
55150;SDS011;41041;43.162;20.538;2024-02-04T12:56:43;6.90;;;2.92;;
55150;SDS011;41041;43.162;20.538;2024-02-04T13:02:13;6.40;;;3.20;;
55150;SDS011;41041;43.162;20.538;2024-02-04T13:04:40;8.18;;;3.80;;
55150;SDS011;41041;43.162;20.538;2024-02-04T13:20:20;8.85;;;2.60;;
55150;SDS011;41041;43.162;20.538;2024-02-04T13:22:46;6.88;;;3.08;;
55150;SDS011;41041;43.162;20.538;2024-02-04T15:02:14;26.50;;;14.90;;
55150;SDS011;41041;43.162;20.538;2024-02-04T17:03:05;48.58;;;25.02;;
55150;SDS011;41041;43.162;20.538;2024-02-04T17:05:32;44.58;;;22.33;;
55150;SDS011;41041;43.162;20.538;2024-02-04T17:07:58;59.88;;;21.73;;
55150;SDS011;41041;43.162;20.538;2024-02-04T17:10:24;40.05;;;18.30;;
55150;SDS011;41041;43.162;20.538;2024-02-04T17:12:51;36.33;;;16.92;;
55150;SDS011;41041;43.162;20.538;2024-02-04T17:15:17;32.40;;;18.13;;
55150;SDS011;41041;43.162;20.538;2024-02-04T17:20:47;34.95;;;16.20;;
55150;SDS011;41041;43.162;20.538;2024-02-04T17:23:21;43.85;;;18.15;;
55150;SDS011;41041;43.162;20.538;2024-02-04T17:25:49;48.70;;;20.85;;
55150;SDS011;41041;43.162;20.538;2024-02-04T17:28:20;49.20;;;22.85;;
55150;SDS011;41041;43.162;20.538;2024-02-04T17:30:46;57.35;;;29.42;;
55150;SDS011;41041;43.162;20.538;2024-02-04T17:33:14;45.80;;;25.30;;
55150;SDS011;41041;43.162;20.538;2024-02-04T17:35:43;45.10;;;25.20;;
55150;SDS011;41041;43.162;20.538;2024-02-04T17:38:13;52.17;;;25.48;;
55150;SDS011;41041;43.162;20.538;2024-02-04T17:40:39;56.80;;;27.45;;
55150;SDS011;41041;43.162;20.538;2024-02-04T17:43:07;53.30;;;27.20;;
55150;SDS011;41041;43.162;20.538;2024-02-04T17:45:36;112.00;;;56.40;;
55150;SDS011;41041;43.162;20.538;2024-02-04T17:48:03;35.78;;;18.80;;
55150;SDS011;41041;43.162;20.538;2024-02-04T17:50:29;38.70;;;19.52;;
55150;SDS011;41041;43.162;20.538;2024-02-04T17:52:55;42.30;;;19.02;;
55150;SDS011;41041;43.162;20.538;2024-02-04T17:55:22;43.00;;;21.98;;
55150;SDS011;41041;43.162;20.538;2024-02-04T18:00:52;36.20;;;17.20;;
55150;SDS011;41041;43.162;20.538;2024-02-04T18:03:20;29.13;;;15.23;;
55150;SDS011;41041;43.162;20.538;2024-02-04T18:05:46;29.77;;;14.50;;
55150;SDS011;41041;43.162;20.538;2024-02-04T18:08:13;35.60;;;16.20;;
55150;SDS011;41041;43.162;20.538;2024-02-04T18:10:39;27.70;;;12.80;;
55150;SDS011;41041;43.162;20.538;2024-02-04T18:13:05;20.40;;;10.80;;
55150;SDS011;41041;43.162;20.538;2024-02-04T18:15:31;40.28;;;16.73;;
55150;SDS011;41041;43.162;20.538;2024-02-04T18:17:57;50.90;;;25.23;;
55150;SDS011;41041;43.162;20.538;2024-02-04T18:20:23;58.90;;;29.67;;
55150;SDS011;41041;43.162;20.538;2024-02-04T18:22:50;58.20;;;22.25;;
55150;SDS011;41041;43.162;20.538;2024-02-04T18:25:16;35.65;;;18.58;;
55150;SDS011;41041;43.162;20.538;2024-02-04T18:27:42;26.75;;;14.63;;
55150;SDS011;41041;43.162;20.538;2024-02-04T18:30:09;26.85;;;14.70;;
55150;SDS011;41041;43.162;20.538;2024-02-04T18:32:42;34.03;;;17.98;;
55150;SDS011;41041;43.162;20.538;2024-02-04T18:35:08;30.63;;;14.10;;
55150;SDS011;41041;43.162;20.538;2024-02-04T18:37:34;16.95;;;9.68;;
55150;SDS011;41041;43.162;20.538;2024-02-04T18:40:09;27.35;;;15.00;;
55150;SDS011;41041;43.162;20.538;2024-02-04T18:42:35;29.08;;;15.10;;
55150;SDS011;41041;43.162;20.538;2024-02-04T18:45:02;28.02;;;15.73;;
55150;SDS011;41041;43.162;20.538;2024-02-04T18:47:29;45.05;;;19.02;;
55150;SDS011;41041;43.162;20.538;2024-02-04T18:49:55;39.08;;;18.27;;
55150;SDS011;41041;43.162;20.538;2024-02-04T18:52:21;26.98;;;14.65;;
55150;SDS011;41041;43.162;20.538;2024-02-04T18:54:49;24.45;;;11.23;;
55150;SDS011;41041;43.162;20.538;2024-02-04T18:57:15;21.77;;;11.23;;
55150;SDS011;41041;43.162;20.538;2024-02-04T18:59:42;21.10;;;11.80;;
55150;SDS011;41041;43.162;20.538;2024-02-04T19:02:08;29.83;;;13.77;;
55150;SDS011;41041;43.162;20.538;2024-02-04T19:04:34;26.60;;;12.65;;
55150;SDS011;41041;43.162;20.538;2024-02-04T19:09:29;29.73;;;16.58;;
55150;SDS011;41041;43.162;20.538;2024-02-04T19:11:56;35.58;;;16.55;;
55150;SDS011;41041;43.162;20.538;2024-02-04T19:14:23;29.58;;;15.02;;
55150;SDS011;41041;43.162;20.538;2024-02-04T19:16:49;28.98;;;13.57;;
55150;SDS011;41041;43.162;20.538;2024-02-04T19:19:16;36.35;;;20.25;;
55150;SDS011;41041;43.162;20.538;2024-02-04T19:21:45;34.00;;;16.83;;
55150;SDS011;41041;43.162;20.538;2024-02-04T19:24:12;29.88;;;15.70;;
55150;SDS011;41041;43.162;20.538;2024-02-04T19:26:40;29.70;;;16.35;;
55150;SDS011;41041;43.162;20.538;2024-02-04T19:29:07;35.50;;;18.17;;
55150;SDS011;41041;43.162;20.538;2024-02-04T19:31:33;39.08;;;19.02;;
55150;SDS011;41041;43.162;20.538;2024-02-04T19:33:59;32.60;;;16.85;;
55150;SDS011;41041;43.162;20.538;2024-02-04T19:36:25;37.20;;;20.27;;
55150;SDS011;41041;43.162;20.538;2024-02-04T19:38:51;29.65;;;14.98;;
55150;SDS011;41041;43.162;20.538;2024-02-04T19:41:17;31.60;;;17.42;;
55150;SDS011;41041;43.162;20.538;2024-02-04T19:43:43;24.52;;;12.50;;
55150;SDS011;41041;43.162;20.538;2024-02-04T19:46:09;27.45;;;14.80;;
55150;SDS011;41041;43.162;20.538;2024-02-04T19:48:35;34.17;;;19.45;;
55150;SDS011;41041;43.162;20.538;2024-02-04T19:51:02;23.90;;;12.93;;
55150;SDS011;41041;43.162;20.538;2024-02-04T19:53:29;15.95;;;8.27;;
55150;SDS011;41041;43.162;20.538;2024-02-04T19:55:55;18.20;;;10.60;;
55150;SDS011;41041;43.162;20.538;2024-02-04T19:58:21;19.20;;;10.82;;
55150;SDS011;41041;43.162;20.538;2024-02-04T20:00:48;33.17;;;17.05;;
55150;SDS011;41041;43.162;20.538;2024-02-04T20:03:16;25.52;;;14.27;;
55150;SDS011;41041;43.162;20.538;2024-02-04T20:05:42;23.75;;;14.35;;
55150;SDS011;41041;43.162;20.538;2024-02-04T20:08:09;27.80;;;15.52;;
55150;SDS011;41041;43.162;20.538;2024-02-04T20:10:35;24.10;;;12.75;;
55150;SDS011;41041;43.162;20.538;2024-02-04T20:13:01;22.63;;;12.43;;
55150;SDS011;41041;43.162;20.538;2024-02-04T20:15:28;25.95;;;14.32;;
55150;SDS011;41041;43.162;20.538;2024-02-04T20:17:58;25.08;;;13.15;;
55150;SDS011;41041;43.162;20.538;2024-02-04T20:20:24;27.85;;;15.85;;
55150;SDS011;41041;43.162;20.538;2024-02-04T20:22:51;27.00;;;13.77;;
55150;SDS011;41041;43.162;20.538;2024-02-04T20:25:30;28.75;;;15.65;;
55150;SDS011;41041;43.162;20.538;2024-02-04T20:27:56;17.75;;;9.90;;
55150;SDS011;41041;43.162;20.538;2024-02-04T20:30:23;16.90;;;8.50;;
55150;SDS011;41041;43.162;20.538;2024-02-04T20:32:53;27.63;;;13.27;;
55150;SDS011;41041;43.162;20.538;2024-02-04T20:38:16;20.15;;;11.98;;
55150;SDS011;41041;43.162;20.538;2024-02-04T20:40:44;16.83;;;9.27;;
55150;SDS011;41041;43.162;20.538;2024-02-04T20:43:10;34.03;;;19.05;;
55150;SDS011;41041;43.162;20.538;2024-02-04T20:45:38;36.20;;;19.98;;
55150;SDS011;41041;43.162;20.538;2024-02-04T20:48:11;34.95;;;19.77;;
55150;SDS011;41041;43.162;20.538;2024-02-04T20:50:38;29.23;;;15.73;;
55150;SDS011;41041;43.162;20.538;2024-02-04T20:53:04;29.33;;;18.52;;
55150;SDS011;41041;43.162;20.538;2024-02-04T20:55:30;20.13;;;11.90;;
55150;SDS011;41041;43.162;20.538;2024-02-04T20:57:57;20.83;;;11.18;;
55150;SDS011;41041;43.162;20.538;2024-02-04T21:00:23;18.92;;;10.70;;
55150;SDS011;41041;43.162;20.538;2024-02-04T21:02:49;32.38;;;15.73;;
55150;SDS011;41041;43.162;20.538;2024-02-04T21:05:16;31.00;;;16.05;;
55150;SDS011;41041;43.162;20.538;2024-02-04T21:07:42;26.13;;;13.48;;
55150;SDS011;41041;43.162;20.538;2024-02-04T21:10:08;26.50;;;13.27;;
55150;SDS011;41041;43.162;20.538;2024-02-04T21:12:35;29.77;;;16.63;;
55150;SDS011;41041;43.162;20.538;2024-02-04T21:15:01;23.13;;;12.50;;
55150;SDS011;41041;43.162;20.538;2024-02-04T21:17:30;20.50;;;11.15;;
55150;SDS011;41041;43.162;20.538;2024-02-04T21:19:56;33.80;;;16.30;;
55150;SDS011;41041;43.162;20.538;2024-02-04T21:22:32;24.40;;;12.40;;
55150;SDS011;41041;43.162;20.538;2024-02-04T21:24:58;23.20;;;12.43;;
55150;SDS011;41041;43.162;20.538;2024-02-04T21:30:17;24.10;;;13.05;;
55150;SDS011;41041;43.162;20.538;2024-02-04T21:32:43;25.80;;;13.48;;
55150;SDS011;41041;43.162;20.538;2024-02-04T21:35:12;35.00;;;20.08;;
55150;SDS011;41041;43.162;20.538;2024-02-04T21:37:38;34.92;;;19.70;;
55150;SDS011;41041;43.162;20.538;2024-02-04T21:40:04;44.75;;;25.00;;